Terminal Aerodrome Forecast
Issued by NWS Sterling, VA

Current Version | Previous Version | Text Only | Print | Product List | Glossary Off
Versions: 1 2 3 4 5 6 7 8 9 10 11 12 13 14 15 16 17 18 19 20 21

633
FTUS41 KLWX 191720
TAFIAD
TAF
KIAD 191720Z 1918/2024 35008G16KT P6SM SCT035
     FM200000 33005KT P6SM FEW200
     FM200900 VRB03KT 6SM BR FEW200
     FM201200 VRB03KT P6SM FEW200
     FM201500 33010KT P6SM SCT050 SCT200=

USA.gov is the U.S. government's official web portal to all federal, state and local government web resources and services.